Terminal Aerodrome Forecast
Issued by NWS Buffalo, NY

Home | Current Version | Previous Version | Text Only | Print | Product List | Glossary On
Versions: 1 2 3 4 5 6 7 8 9 10 11 12 13 14 15 16 17 18 19 20 21 22 23 24
000
FTUS41 KBUF 191732
TAFART
TAF
KART 191732Z 1918/2018 18012G19KT P6SM OVC100
     FM200100 18008KT 6SM -RA OVC007
      TEMPO 2001/2005 3SM RA
     FM200500 18007KT 2SM RA BR OVC007
     FM201400 19012G19KT 6SM -RA BR OVC003=

USA.gov is the U.S. government's official web portal to all federal, state and local government web resources and services.